Terminal Aerodrome Forecast
Issued by NWS

Home | Current Version | Previous Version | Text Only | Print | Product List | Glossary On
Versions: 1 2 3 4 5 6 7 8 9 10 11 12 13 14 15 16 17 18 19
938
FTUS46 KLOX 291138
TAFOXR
TAF
KOXR 291138Z 2912/3012 06014KT P6SM SKC
     FM291600 06015G25KT P6SM SKC
     FM292100 28011KT P6SM SKC
     FM300300 VRB05KT P6SM SKC=

USA.gov is the U.S. government's official web portal to all federal, state and local government web resources and services.